Time;durP1;ratioP1;P1;durP2;ratioP2;P2;SDS_P1;SDS_P2;PMS_P1;PMS_P2;Temp;Humidity;BMP_temperature;BMP_pressure;BME280_temperature;BME280_humidity;BME280_pressure;Samples;Min_cycle;Max_cycle;Signal;HPM_P1;HPM_P2
2022/11/28 00:01:43;;;;;;;10.10;6.97;;;6.90;99.90;;;;;;5039220;28;20043;-80
2022/11/28 00:04:09;;;;;;;15.05;8.45;;;6.50;99.90;;;;;;5038763;28;20041;-80
2022/11/28 00:06:37;;;;;;;11.45;7.15;;;6.70;99.90;;;;;;5055346;28;20479;-80
2022/11/28 00:09:04;;;;;;;10.77;8.13;;;6.90;99.90;;;;;;5038718;28;20045;-80
2022/11/28 00:11:29;;;;;;;12.80;7.65;;;6.70;99.90;;;;;;5056169;28;20171;-80
2022/11/28 00:13:55;;;;;;;11.80;8.00;;;6.80;99.90;;;;;;5055160;28;20076;-80
2022/11/28 00:16:21;;;;;;;12.88;8.65;;;6.50;99.90;;;;;;5055370;28;20040;-80
2022/11/28 00:18:48;;;;;;;11.50;7.22;;;6.40;99.90;;;;;;5038601;28;20028;-80
2022/11/28 00:21:14;;;;;;;12.55;8.15;;;6.80;99.90;;;;;;5055360;28;20037;-80
2022/11/28 00:23:42;;;;;;;10.70;6.82;;;6.50;99.90;;;;;;5035892;28;20049;-80
2022/11/28 00:26:21;;;;;;;9.48;7.10;;;6.50;99.90;;;;;;5052703;28;20132;-80
2022/11/28 00:28:47;;;;;;;12.02;7.07;;;6.50;99.90;;;;;;5036356;28;20041;-80
2022/11/28 00:31:15;;;;;;;9.95;7.18;;;6.80;99.90;;;;;;5052806;28;20383;-80
2022/11/28 00:33:41;;;;;;;9.27;6.90;;;6.90;99.90;;;;;;5052059;28;20443;-80
2022/11/28 00:36:06;;;;;;;10.18;7.07;;;6.50;99.90;;;;;;5037280;28;20083;-80
2022/11/28 00:38:32;;;;;;;11.13;6.82;;;6.50;99.90;;;;;;5054653;28;20037;-80
2022/11/28 00:41:04;;;;;;;12.40;7.47;;;6.50;99.90;;;;;;5053982;28;20064;-80
2022/11/28 00:43:30;;;;;;;9.68;7.30;;;6.50;99.90;;;;;;5054291;28;20128;-80
2022/11/28 00:45:55;;;;;;;8.68;6.57;;;6.60;99.90;;;;;;5054721;28;20087;-80
2022/11/28 00:48:21;;;;;;;8.68;6.72;;;6.60;99.90;;;;;;5054768;28;20044;-80
2022/11/28 00:50:47;;;;;;;9.93;7.28;;;6.60;99.90;;;;;;5054257;28;20045;-80
2022/11/28 00:53:12;;;;;;;10.98;7.28;;;6.50;99.90;;;;;;5082755;22;20036;-72
2022/11/28 00:55:38;;;;;;;11.55;6.90;;;6.80;99.90;;;;;;5078212;28;20048;-72
2022/11/28 00:58:04;;;;;;;10.57;7.13;;;6.60;99.90;;;;;;5060416;28;20430;-72
2022/11/28 01:00:30;;;;;;;8.80;7.43;;;6.90;99.90;;;;;;5078634;28;20214;-72
2022/11/28 01:02:56;;;;;;;9.27;7.00;;;6.90;99.90;;;;;;5059530;28;20402;-72
2022/11/28 01:05:22;;;;;;;9.93;6.70;;;6.60;99.90;;;;;;5078736;28;20044;-72
2022/11/28 01:07:47;;;;;;;12.18;7.72;;;6.80;99.90;;;;;;5060097;28;20048;-72
2022/11/28 01:10:13;;;;;;;8.55;6.40;;;6.90;99.90;;;;;;5078021;28;20064;-72
2022/11/28 01:12:39;;;;;;;10.73;7.47;;;6.90;99.90;;;;;;5076663;28;20071;-72
2022/11/28 01:15:07;;;;;;;10.18;6.95;;;6.90;99.90;;;;;;5078257;28;20040;-72
2022/11/28 01:17:32;;;;;;;11.73;7.30;;;6.60;99.90;;;;;;5078083;28;20074;-72
2022/11/28 01:19:58;;;;;;;8.68;6.70;;;6.70;99.90;;;;;;5078394;28;20060;-72
2022/11/28 01:22:23;;;;;;;11.57;7.15;;;6.70;99.90;;;;;;5076416;28;20048;-72
2022/11/28 01:24:49;;;;;;;10.40;7.25;;;6.90;99.90;;;;;;5078404;28;20033;-72
2022/11/28 01:27:14;;;;;;;10.38;7.53;;;7.00;99.90;;;;;;5078759;28;20058;-72
2022/11/28 01:29:40;;;;;;;10.65;7.60;;;6.80;99.90;;;;;;5076869;28;20044;-72
2022/11/28 01:32:06;;;;;;;12.30;6.78;;;6.80;99.90;;;;;;5060218;28;20037;-72
2022/11/28 01:34:31;;;;;;;14.27;7.65;;;7.00;99.90;;;;;;5076425;28;20040;-72
2022/11/28 01:36:57;;;;;;;10.30;6.85;;;7.00;99.90;;;;;;5077963;28;20118;-71
2022/11/28 01:39:22;;;;;;;12.10;7.43;;;6.90;99.90;;;;;;5077967;28;20060;-72
2022/11/28 01:41:48;;;;;;;10.82;7.63;;;7.00;99.90;;;;;;5077404;28;20048;-72
2022/11/28 01:44:13;;;;;;;12.13;8.15;;;6.80;99.90;;;;;;5075866;28;20041;-71
2022/11/28 01:46:39;;;;;;;12.95;7.85;;;6.80;99.90;;;;;;5077484;28;20456;-72
2022/11/28 01:49:08;;;;;;;11.05;7.00;;;6.80;99.90;;;;;;5078037;28;20071;-72
2022/11/28 01:51:34;;;;;;;12.35;7.15;;;6.90;99.90;;;;;;5060685;28;20059;-72
2022/11/28 01:54:01;;;;;;;10.25;6.82;;;7.00;99.90;;;;;;5078583;28;20583;-72
2022/11/28 01:56:33;;;;;;;12.57;7.72;;;7.10;99.90;;;;;;5077139;28;20033;-72
2022/11/28 01:59:03;;;;;;;11.32;7.72;;;7.10;99.90;;;;;;5078660;28;20172;-72
2022/11/28 02:01:28;;;;;;;12.70;7.50;;;6.70;99.90;;;;;;5079060;28;20438;-72
2022/11/28 02:03:56;;;;;;;10.57;7.53;;;6.80;99.90;;;;;;5078180;28;20043;-72
2022/11/28 02:06:24;;;;;;;11.73;7.25;;;7.10;99.90;;;;;;5076918;28;20071;-72
2022/11/28 02:08:51;;;;;;;11.25;7.57;;;7.10;99.90;;;;;;5076873;28;20528;-72
2022/11/28 02:11:48;;;;;;;11.23;7.43;;;7.00;99.90;;;;;;5076965;28;20043;-72
2022/11/28 02:14:41;;;;;;;11.80;8.48;;;7.10;99.90;;;;;;5077683;28;20044;-72
2022/11/28 02:17:30;;;;;;;12.80;8.38;;;7.10;99.90;;;;;;5078828;28;20044;-72
2022/11/28 02:20:15;;;;;;;14.43;8.63;;;6.70;99.90;;;;;;5077352;28;20036;-72
2022/11/28 02:22:51;;;;;;;14.32;9.27;;;6.90;99.90;;;;;;5078744;28;20044;-72
2022/11/28 02:25:54;;;;;;;13.25;9.27;;;6.80;99.90;;;;;;5077229;28;20072;-72
2022/11/28 02:28:46;;;;;;;15.32;9.50;;;6.70;99.90;;;;;;5076734;28;20074;-72
2022/11/28 02:31:32;;;;;;;15.95;10.43;;;7.00;99.90;;;;;;5078490;28;20383;-72
2022/11/28 02:34:07;;;;;;;14.90;10.63;;;6.80;99.90;;;;;;5078678;28;20126;-72
2022/11/28 02:36:44;;;;;;;13.55;9.15;;;6.90;99.90;;;;;;5078463;28;20040;-72
2022/11/28 02:39:12;;;;;;;17.95;9.27;;;6.80;99.90;;;;;;5078735;28;20046;-72
2022/11/28 02:41:53;;;;;;;19.92;9.52;;;6.70;99.90;;;;;;5077654;28;20060;-72
2022/11/28 02:44:23;;;;;;;16.10;11.55;;;6.80;99.90;;;;;;5077836;28;20115;-72
2022/11/28 02:47:05;;;;;;;15.32;10.27;;;7.00;99.90;;;;;;5080760;28;20036;-72
2022/11/28 02:49:37;;;;;;;16.25;9.95;;;7.00;99.90;;;;;;5083235;28;20072;-72
2022/11/28 02:52:08;;;;;;;17.40;10.30;;;6.90;99.90;;;;;;5082672;28;20045;-72
2022/11/28 02:54:35;;;;;;;14.18;9.77;;;6.90;99.90;;;;;;5065419;28;20173;-72
2022/11/28 02:57:01;;;;;;;15.57;9.48;;;6.80;99.90;;;;;;5082555;28;20127;-72
2022/11/28 02:59:36;;;;;;;17.00;9.60;;;7.00;99.90;;;;;;5081605;28;20462;-72
2022/11/28 03:02:03;;;;;;;15.25;9.32;;;6.80;99.90;;;;;;5081628;28;20374;-72
2022/11/28 03:04:29;;;;;;;15.02;9.00;;;6.80;99.90;;;;;;5082842;28;20047;-72
2022/11/28 03:07:10;;;;;;;11.80;8.20;;;6.90;99.90;;;;;;5082859;28;20064;-72
2022/11/28 03:10:11;;;;;;;13.20;8.73;;;6.80;99.90;;;;;;5082929;28;20036;-72
2022/11/28 03:12:58;;;;;;;12.13;8.40;;;6.80;99.90;;;;;;5082867;28;20437;-72
2022/11/28 03:15:49;;;;;;;11.43;8.00;;;7.10;99.90;;;;;;5082377;28;20078;-72
2022/11/28 03:18:38;;;;;;;15.88;8.82;;;6.90;99.90;;;;;;5082040;28;20047;-72
2022/11/28 03:21:20;;;;;;;16.05;10.10;;;6.80;99.90;;;;;;5082409;28;20044;-72
2022/11/28 03:23:54;;;;;;;18.90;10.45;;;7.00;99.90;;;;;;5083395;28;20064;-72
2022/11/28 03:26:39;;;;;;;14.65;9.65;;;6.80;99.90;;;;;;5081337;28;20044;-72
2022/11/28 03:29:17;;;;;;;15.10;9.60;;;6.80;99.90;;;;;;5082462;28;20045;-72
2022/11/28 03:32:05;;;;;;;17.83;11.02;;;6.80;99.90;;;;;;5081919;28;20086;-72
2022/11/28 03:34:36;;;;;;;13.65;9.48;;;7.00;99.90;;;;;;5080547;28;20078;-72
2022/11/28 03:37:10;;;;;;;14.68;10.32;;;7.10;99.90;;;;;;5081157;28;20157;-72
2022/11/28 03:39:45;;;;;;;15.88;10.43;;;6.80;99.90;;;;;;5080537;28;20083;-72
2022/11/28 03:42:22;;;;;;;16.48;10.00;;;6.70;99.90;;;;;;5082190;28;20070;-72
2022/11/28 03:44:53;;;;;;;16.67;10.05;;;6.90;99.90;;;;;;5082899;28;20063;-72
2022/11/28 03:47:21;;;;;;;15.95;10.52;;;6.90;99.90;;;;;;5082548;28;20044;-72
2022/11/28 03:49:52;;;;;;;14.38;10.50;;;6.80;99.90;;;;;;5082630;28;20032;-72
2022/11/28 03:52:31;;;;;;;18.67;10.13;;;6.80;99.90;;;;;;5081944;28;20040;-72
2022/11/28 03:55:11;;;;;;;15.82;10.48;;;6.90;99.90;;;;;;5082131;28;20055;-72
2022/11/28 03:57:47;;;;;;;17.98;11.02;;;6.90;99.90;;;;;;5081466;28;20086;-72
2022/11/28 04:00:13;;;;;;;19.23;11.65;;;7.00;99.90;;;;;;5081557;28;20036;-72
2022/11/28 04:02:51;;;;;;;17.27;10.38;;;6.90;99.90;;;;;;5081045;28;20036;-72
2022/11/28 04:05:35;;;;;;;17.58;11.10;;;6.90;99.90;;;;;;5082796;28;20036;-72
2022/11/28 04:08:10;;;;;;;16.40;11.35;;;6.80;99.90;;;;;;5083017;28;20041;-71
2022/11/28 04:10:49;;;;;;;18.88;12.75;;;7.10;99.90;;;;;;5082480;28;20045;-72
2022/11/28 04:13:24;;;;;;;15.38;10.90;;;7.00;99.90;;;;;;5080581;28;20032;-72
2022/11/28 04:16:14;;;;;;;18.73;12.30;;;7.10;99.90;;;;;;5082454;28;20051;-72
2022/11/28 04:19:01;;;;;;;17.33;11.82;;;6.80;99.90;;;;;;5082825;28;20044;-73
2022/11/28 04:21:45;;;;;;;19.65;12.48;;;6.90;99.90;;;;;;5082865;28;20048;-72
2022/11/28 04:24:33;;;;;;;17.73;11.77;;;7.00;99.90;;;;;;5082591;28;20040;-72
2022/11/28 04:27:03;;;;;;;16.23;11.60;;;7.20;99.90;;;;;;5082347;28;20123;-72
2022/11/28 04:29:38;;;;;;;16.83;12.82;;;7.00;99.90;;;;;;5081763;28;20036;-72
2022/11/28 04:32:04;;;;;;;22.73;13.57;;;7.00;99.90;;;;;;5082021;28;20100;-72
2022/11/28 04:34:32;;;;;;;20.00;14.05;;;7.20;99.90;;;;;;5082167;28;20079;-72
2022/11/28 04:37:00;;;;;;;18.55;13.43;;;6.90;99.90;;;;;;5081769;28;20108;-72
2022/11/28 04:39:29;;;;;;;21.27;14.68;;;7.00;99.90;;;;;;5082658;28;20089;-72
2022/11/28 04:42:09;;;;;;;24.25;15.07;;;7.10;99.90;;;;;;5081518;28;20047;-72
2022/11/28 04:44:44;;;;;;;21.45;14.02;;;7.20;99.90;;;;;;5082456;28;20043;-72
2022/11/28 04:47:10;;;;;;;22.20;14.90;;;7.00;99.90;;;;;;5081554;28;20073;-72
2022/11/28 04:49:36;;;;;;;27.20;17.40;;;7.00;99.90;;;;;;5083077;28;20437;-72
2022/11/28 04:52:05;;;;;;;22.23;15.30;;;7.30;99.90;;;;;;5082428;28;20064;-72
2022/11/28 04:54:59;;;;;;;21.85;16.17;;;7.10;99.90;;;;;;5080759;28;20104;-72
2022/11/28 04:57:45;;;;;;;23.38;16.35;;;7.10;99.90;;;;;;5080391;28;20044;-72
2022/11/28 05:00:16;;;;;;;26.80;19.27;;;7.10;99.90;;;;;;5081136;28;20063;-72
2022/11/28 05:02:44;;;;;;;23.58;17.85;;;7.30;99.90;;;;;;5080973;28;20040;-72
2022/11/28 05:05:14;;;;;;;25.55;19.13;;;7.40;99.90;;;;;;5080886;28;20124;-72
2022/11/28 05:07:39;;;;;;;24.75;17.73;;;7.20;99.90;;;;;;5079323;28;20083;-72
2022/11/28 05:10:06;;;;;;;25.65;18.20;;;7.40;99.90;;;;;;5080975;28;20041;-72
2022/11/28 05:12:32;;;;;;;25.45;16.58;;;7.40;99.90;;;;;;5078577;28;20370;-72
2022/11/28 05:14:57;;;;;;;24.95;18.13;;;7.40;99.90;;;;;;5078730;28;20043;-72
2022/11/28 05:17:23;;;;;;;26.30;18.88;;;7.40;99.90;;;;;;5063075;28;20045;-72
2022/11/28 05:19:48;;;;;;;28.17;19.70;;;7.30;99.90;;;;;;5081112;28;20045;-71
2022/11/28 05:22:14;;;;;;;27.45;19.55;;;7.30;99.90;;;;;;5081024;28;20078;-72
2022/11/28 05:24:39;;;;;;;26.75;18.23;;;7.30;99.90;;;;;;5079819;28;20043;-72
2022/11/28 05:27:06;;;;;;;29.50;20.25;;;7.40;99.90;;;;;;5080067;28;20044;-72
2022/11/28 05:29:32;;;;;;;27.45;21.40;;;7.40;99.90;;;;;;5064804;28;20056;-72
2022/11/28 05:31:57;;;;;;;27.92;22.40;;;7.50;99.90;;;;;;5081250;28;20037;-72
2022/11/28 05:34:23;;;;;;;29.25;20.90;;;7.60;99.90;;;;;;5064778;28;20036;-72
2022/11/28 05:36:50;;;;;;;24.00;19.38;;;7.40;99.90;;;;;;5081413;28;20037;-72
2022/11/28 05:39:15;;;;;;;26.92;21.05;;;7.40;99.90;;;;;;5080536;28;20040;-72
2022/11/28 05:41:41;;;;;;;26.58;20.20;;;7.50;99.90;;;;;;5080878;28;20048;-72
2022/11/28 05:44:08;;;;;;;27.75;20.65;;;7.50;99.90;;;;;;5080189;28;20052;-72
2022/11/28 05:46:33;;;;;;;26.60;21.25;;;7.70;99.90;;;;;;5079990;28;20062;-72
2022/11/28 05:48:59;;;;;;;28.75;20.55;;;7.70;99.90;;;;;;5080799;28;20064;-72
2022/11/28 05:51:24;;;;;;;31.25;23.48;;;7.60;99.90;;;;;;5080396;28;20040;-72
2022/11/28 05:53:50;;;;;;;34.40;23.13;;;7.50;99.90;;;;;;5080529;28;20082;-72
2022/11/28 05:56:18;;;;;;;29.80;22.60;;;7.70;99.90;;;;;;5079939;28;20117;-72
2022/11/28 05:58:44;;;;;;;28.90;22.48;;;7.70;99.90;;;;;;5079428;28;20128;-72
2022/11/28 06:01:15;;;;;;;31.90;24.05;;;7.80;99.90;;;;;;5079067;28;20032;-73
2022/11/28 06:03:41;;;;;;;27.95;21.63;;;7.60;99.90;;;;;;5079608;28;20040;-72
2022/11/28 06:06:15;;;;;;;32.13;22.00;;;7.70;99.90;;;;;;5062979;28;20040;-72
2022/11/28 06:08:41;;;;;;;31.65;22.10;;;7.70;99.90;;;;;;5078991;28;20037;-72
2022/11/28 06:11:08;;;;;;;30.05;21.83;;;7.70;99.90;;;;;;5079703;28;20091;-72
2022/11/28 06:13:33;;;;;;;32.20;22.40;;;7.70;99.90;;;;;;5080308;28;20054;-72
2022/11/28 06:15:59;;;;;;;28.98;21.50;;;7.70;99.90;;;;;;5079621;28;20073;-72
2022/11/28 06:18:24;;;;;;;29.90;20.58;;;7.80;99.90;;;;;;5079832;28;20075;-72
2022/11/28 06:20:50;;;;;;;32.33;21.50;;;7.80;99.90;;;;;;5076103;28;20090;-72
2022/11/28 06:23:16;;;;;;;27.65;20.75;;;7.80;99.90;;;;;;5077269;28;20064;-72
2022/11/28 06:25:41;;;;;;;32.83;22.77;;;7.70;99.90;;;;;;5076434;28;20040;-71
2022/11/28 06:28:07;;;;;;;32.85;23.60;;;7.80;99.90;;;;;;5076324;28;20044;-71
2022/11/28 06:30:32;;;;;;;37.72;26.67;;;7.70;99.90;;;;;;5075759;28;20128;-70
2022/11/28 06:32:58;;;;;;;49.50;33.92;;;7.70;99.90;;;;;;5076371;28;20515;-71
2022/11/28 06:35:37;;;;;;;48.30;32.35;;;7.90;99.90;;;;;;5076100;28;20049;-73
2022/11/28 06:38:02;;;;;;;38.38;25.40;;;7.90;99.90;;;;;;5075039;28;20059;-71
2022/11/28 06:40:28;;;;;;;33.30;23.20;;;7.80;99.90;;;;;;5074079;28;20121;-71
2022/11/28 06:42:53;;;;;;;34.50;23.63;;;7.70;99.90;;;;;;5072941;28;20119;-72
2022/11/28 06:45:19;;;;;;;34.67;23.05;;;7.70;99.90;;;;;;5074728;28;20048;-73
2022/11/28 06:47:45;;;;;;;37.50;25.05;;;7.90;99.90;;;;;;5070920;28;20032;-73
2022/11/28 06:50:10;;;;;;;31.35;23.45;;;7.70;99.90;;;;;;5069785;28;20036;-73
2022/11/28 06:52:36;;;;;;;35.03;24.23;;;7.90;99.90;;;;;;5069608;28;20040;-72
2022/11/28 06:55:01;;;;;;;33.05;23.35;;;7.90;99.90;;;;;;5109794;22;20048;-74
2022/11/28 06:57:27;;;;;;;31.60;22.65;;;7.90;99.90;;;;;;5089487;28;20036;-74
2022/11/28 06:59:52;;;;;;;31.05;23.05;;;7.80;99.90;;;;;;5090253;28;20146;-74
2022/11/28 07:02:18;;;;;;;33.65;23.75;;;7.80;99.90;;;;;;5090339;28;20053;-75
2022/11/28 07:04:43;;;;;;;35.25;24.63;;;7.90;99.90;;;;;;5089956;28;20121;-75
2022/11/28 07:07:09;;;;;;;35.28;24.08;;;7.80;99.90;;;;;;5090107;28;20121;-74
2022/11/28 07:09:34;;;;;;;36.10;22.83;;;7.80;99.90;;;;;;5073286;28;20036;-74
2022/11/28 07:12:00;;;;;;;32.97;23.75;;;7.90;99.90;;;;;;5089833;28;20082;-75
2022/11/28 07:14:26;;;;;;;33.05;22.58;;;7.90;99.90;;;;;;5090361;28;20085;-74
2022/11/28 07:16:51;;;;;;;31.65;21.52;;;7.80;99.90;;;;;;5090215;28;20119;-75
2022/11/28 07:19:21;;;;;;;34.08;24.00;;;8.00;99.90;;;;;;5090256;28;20032;-75
2022/11/28 07:21:49;;;;;;;32.35;22.58;;;7.80;99.90;;;;;;5090025;28;20497;-75
2022/11/28 07:24:16;;;;;;;36.67;25.08;;;8.00;99.90;;;;;;5089956;28;20474;-75
2022/11/28 07:26:41;;;;;;;29.92;22.27;;;7.80;99.90;;;;;;5090011;28;20075;-75
2022/11/28 07:29:08;;;;;;;34.78;23.10;;;7.90;99.90;;;;;;5089969;28;20074;-75
2022/11/28 07:31:36;;;;;;;36.22;23.33;;;7.90;99.90;;;;;;5074344;28;20051;-75
2022/11/28 07:34:04;;;;;;;35.58;23.55;;;8.00;99.90;;;;;;5093106;28;20047;-75
2022/11/28 07:36:30;;;;;;;37.03;24.10;;;8.00;99.90;;;;;;5093760;28;20444;-74
2022/11/28 07:38:58;;;;;;;39.75;24.05;;;8.00;99.90;;;;;;5093378;28;20068;-75
2022/11/28 07:41:25;;;;;;;34.17;24.13;;;7.90;99.90;;;;;;5093588;28;20444;-74
2022/11/28 07:43:54;;;;;;;36.58;23.42;;;7.90;99.90;;;;;;5092907;28;20069;-74
2022/11/28 07:46:19;;;;;;;35.08;23.10;;;7.90;99.90;;;;;;5093083;28;20556;-73
2022/11/28 07:48:46;;;;;;;37.00;23.08;;;8.00;99.90;;;;;;5076094;28;20169;-74
2022/11/28 07:51:15;;;;;;;37.88;21.73;;;8.00;99.90;;;;;;5092956;28;20516;-73
2022/11/28 07:53:41;;;;;;;34.92;22.95;;;7.80;99.90;;;;;;5092467;28;20411;-74
2022/11/28 07:56:13;;;;;;;26.98;19.02;;;7.90;99.90;;;;;;5092898;28;20038;-73
2022/11/28 07:58:39;;;;;;;34.90;22.80;;;7.90;99.90;;;;;;5093164;28;20062;-74
2022/11/28 08:01:12;;;;;;;30.75;20.58;;;8.00;99.90;;;;;;5092763;28;20032;-73
2022/11/28 08:03:38;;;;;;;27.15;19.65;;;7.90;99.90;;;;;;5075755;28;20083;-73
2022/11/28 08:06:05;;;;;;;27.20;19.92;;;8.10;99.90;;;;;;5093122;28;20040;-73
2022/11/28 08:08:30;;;;;;;25.63;17.73;;;7.90;99.90;;;;;;5093573;28;20119;-73
2022/11/28 08:11:01;;;;;;;25.80;18.48;;;8.00;99.90;;;;;;5076009;28;20119;-73
2022/11/28 08:13:27;;;;;;;25.00;17.85;;;7.90;99.90;;;;;;5092479;28;20090;-75
2022/11/28 08:15:53;;;;;;;28.58;19.42;;;7.90;99.90;;;;;;5092780;28;20040;-75
2022/11/28 08:18:19;;;;;;;25.10;18.45;;;8.10;99.90;;;;;;5094043;28;20540;-73
2022/11/28 08:20:45;;;;;;;26.10;17.45;;;8.00;99.90;;;;;;5075587;28;20040;-73
2022/11/28 08:23:10;;;;;;;28.25;18.98;;;8.00;99.90;;;;;;5092108;28;20119;-75
2022/11/28 08:25:36;;;;;;;24.92;17.42;;;8.10;99.90;;;;;;5092854;28;20109;-76
2022/11/28 08:28:01;;;;;;;24.50;17.98;;;8.00;99.90;;;;;;5092564;28;20071;-75
2022/11/28 08:30:27;;;;;;;26.77;16.75;;;8.00;99.90;;;;;;5092466;28;20036;-73
2022/11/28 08:32:53;;;;;;;25.67;17.05;;;8.00;99.90;;;;;;5091921;28;20081;-73
2022/11/28 08:35:18;;;;;;;27.17;17.55;;;8.10;99.90;;;;;;5092262;28;20040;-74
2022/11/28 08:37:44;;;;;;;23.60;17.20;;;8.10;99.90;;;;;;5092108;28;20620;-74
2022/11/28 08:40:10;;;;;;;28.63;16.63;;;8.10;99.90;;;;;;5075472;28;20089;-73
2022/11/28 08:42:35;;;;;;;24.08;16.48;;;8.00;99.90;;;;;;5091263;28;20067;-73
2022/11/28 08:45:01;;;;;;;23.25;16.48;;;8.10;99.90;;;;;;5091896;28;20555;-73
2022/11/28 08:47:26;;;;;;;23.55;15.57;;;8.00;99.90;;;;;;5091939;28;20051;-73
2022/11/28 08:49:52;;;;;;;23.70;15.57;;;8.00;99.90;;;;;;5091783;28;20482;-73
2022/11/28 08:52:17;;;;;;;25.05;15.93;;;8.10;99.90;;;;;;5091799;28;20498;-73
2022/11/28 08:54:43;;;;;;;21.92;15.95;;;8.20;99.90;;;;;;5091566;28;20067;-73
2022/11/28 08:57:09;;;;;;;20.23;14.75;;;8.00;99.90;;;;;;5091827;28;20405;-73
2022/11/28 08:59:34;;;;;;;17.95;13.80;;;8.10;99.90;;;;;;5091782;28;20036;-73
2022/11/28 09:02:00;;;;;;;21.48;14.10;;;8.10;99.90;;;;;;5091791;28;20110;-73
2022/11/28 09:04:25;;;;;;;18.70;11.98;;;8.20;99.90;;;;;;5091488;28;20060;-73
2022/11/28 09:06:51;;;;;;;18.05;14.20;;;8.20;99.90;;;;;;5074851;28;20587;-73
2022/11/28 09:09:17;;;;;;;20.27;13.07;;;8.10;99.90;;;;;;5091621;28;20126;-73
2022/11/28 09:11:43;;;;;;;18.40;12.10;;;8.10;99.90;;;;;;5091832;28;20051;-73
2022/11/28 09:14:09;;;;;;;16.30;11.95;;;8.20;99.90;;;;;;5091132;28;20036;-73
2022/11/28 09:16:36;;;;;;;17.20;12.95;;;8.20;99.90;;;;;;5074650;28;20043;-73
2022/11/28 09:19:02;;;;;;;15.75;11.15;;;8.20;99.90;;;;;;5074414;28;20044;-73
2022/11/28 09:21:27;;;;;;;17.30;11.88;;;8.20;99.90;;;;;;5091771;28;20138;-75
2022/11/28 09:23:54;;;;;;;13.57;10.88;;;8.30;99.90;;;;;;5091304;28;20114;-73
2022/11/28 09:26:21;;;;;;;20.17;12.18;;;8.30;99.90;;;;;;5091308;28;20124;-73
2022/11/28 09:28:47;;;;;;;15.65;11.00;;;8.20;99.90;;;;;;5074331;28;20044;-73
2022/11/28 09:31:14;;;;;;;14.52;10.90;;;8.30;99.90;;;;;;5074183;28;20035;-73
2022/11/28 09:33:41;;;;;;;14.18;10.30;;;8.30;99.90;;;;;;5091869;28;20036;-72
2022/11/28 09:36:10;;;;;;;12.00;9.32;;;8.30;99.90;;;;;;5091141;28;20040;-72
2022/11/28 09:38:36;;;;;;;14.45;10.18;;;8.30;99.90;;;;;;5091146;28;20040;-72
2022/11/28 09:41:03;;;;;;;24.30;9.00;;;8.10;99.90;;;;;;5096818;28;20449;-72
2022/11/28 09:43:40;;;;;;;12.38;8.52;;;8.30;99.90;;;;;;5101282;28;20513;-72
2022/11/28 09:46:12;;;;;;;11.95;8.77;;;8.30;99.90;;;;;;5084088;28;20049;-72
2022/11/28 09:48:44;;;;;;;13.68;8.77;;;8.30;99.90;;;;;;5111552;28;20065;-72
2022/11/28 09:51:28;;;;;;;11.80;9.05;;;8.20;99.90;;;;;;5111341;28;20039;-72
2022/11/28 09:54:12;;;;;;;11.93;8.70;;;8.30;99.90;;;;;;5110723;28;20075;-73
2022/11/28 09:56:38;;;;;;;;;;;8.30;99.90;;;;;;5111899;28;20043;-72
2022/11/28 09:59:11;;;;;;;10.80;8.52;;;8.20;99.90;;;;;;5106063;28;20018;-73
2022/11/28 10:02:01;;;;;;;11.30;8.32;;;8.20;99.90;;;;;;5104120;28;20031;-73
2022/11/28 10:04:38;;;;;;;12.55;7.68;;;8.40;99.90;;;;;;5111125;28;20042;-73
2022/11/28 10:07:26;;;;;;;10.45;7.72;;;8.40;99.90;;;;;;5112369;28;20695;-73
2022/11/28 10:09:58;;;;;;;9.00;7.00;;;8.40;99.90;;;;;;5111499;28;20505;-73
2022/11/28 10:12:46;;;;;;;9.80;7.00;;;8.40;99.90;;;;;;5111179;28;20074;-73
2022/11/28 10:15:26;;;;;;;9.40;7.30;;;8.40;99.90;;;;;;5093861;28;20077;-73
2022/11/28 10:18:36;;;;;;;9.75;7.55;;;8.40;99.90;;;;;;5110942;28;20088;-73
2022/11/28 10:21:15;;;;;;;9.15;7.40;;;8.30;99.90;;;;;;5055985;28;20074;-73
2022/11/28 10:23:45;;;;;;;8.57;7.00;;;8.30;99.90;;;;;;5071957;28;20575;-73
2022/11/28 10:26:20;;;;;;;8.32;6.50;;;8.40;99.90;;;;;;5084780;28;20048;-73
2022/11/28 10:28:50;;;;;;;8.95;6.75;;;8.30;99.90;;;;;;5111144;28;20146;-73
2022/11/28 10:31:33;;;;;;;9.82;7.82;;;8.30;99.90;;;;;;5110703;28;20035;-72
2022/11/28 10:34:06;;;;;;;9.82;7.15;;;8.30;99.90;;;;;;5110282;28;20568;-73
2022/11/28 10:36:54;;;;;;;9.57;7.28;;;8.40;99.90;;;;;;5111095;28;20427;-72
2022/11/28 10:39:20;;;;;;;10.55;8.15;;;8.40;99.90;;;;;;5110974;28;20126;-72
2022/11/28 10:42:12;;;;;;;9.65;7.63;;;8.40;99.90;;;;;;5110621;28;20119;-72
2022/11/28 10:44:58;;;;;;;13.10;7.53;;;8.40;99.90;;;;;;5093468;28;20036;-73
2022/11/28 10:47:23;;;;;;;11.48;8.43;;;8.30;99.90;;;;;;5110776;28;20089;-73
2022/11/28 10:49:53;;;;;;;9.35;7.15;;;8.40;99.90;;;;;;5093969;28;20435;-73
2022/11/28 10:52:42;;;;;;;11.82;7.82;;;8.40;99.90;;;;;;5110434;28;20619;-73
2022/11/28 10:55:46;;;;;;;9.70;8.00;;;8.40;99.90;;;;;;5111694;28;20042;-73
2022/11/28 10:58:50;;;;;;;10.73;8.30;;;8.40;99.90;;;;;;5110942;28;20435;-72
2022/11/28 11:01:16;;;;;;;11.27;8.85;;;8.50;99.90;;;;;;5087942;28;20105;-72
2022/11/28 11:03:41;;;;;;;13.07;8.80;;;8.40;99.90;;;;;;5098729;28;20032;-73
2022/11/28 11:06:08;;;;;;;10.18;7.53;;;8.50;99.90;;;;;;5109406;28;20118;-72
2022/11/28 11:08:38;;;;;;;11.27;8.32;;;8.40;99.90;;;;;;5097435;28;20168;-72
2022/11/28 11:11:30;;;;;;;9.82;8.27;;;8.40;99.90;;;;;;5097392;28;20050;-73
2022/11/28 11:14:05;;;;;;;11.18;8.00;;;8.60;99.90;;;;;;5096863;28;20071;-73
2022/11/28 11:16:55;;;;;;;11.63;8.57;;;8.60;99.90;;;;;;5097461;28;20051;-73
2022/11/28 11:19:32;;;;;;;12.05;8.80;;;8.60;99.90;;;;;;5114238;28;20039;-73
2022/11/28 11:22:00;;;;;;;10.25;8.18;;;8.60;99.90;;;;;;5097072;28;20031;-72
2022/11/28 11:24:26;;;;;;;10.00;8.23;;;8.60;99.90;;;;;;5113951;28;20043;-72
2022/11/28 11:26:52;;;;;;;11.60;8.55;;;8.60;99.90;;;;;;5097116;28;20473;-73
2022/11/28 11:29:27;;;;;;;10.20;7.93;;;8.50;99.90;;;;;;5097286;28;20054;-73
2022/11/28 11:31:54;;;;;;;12.45;8.85;;;8.70;99.90;;;;;;5113933;28;20039;-73
2022/11/28 11:34:22;;;;;;;9.90;8.18;;;8.70;99.90;;;;;;5113425;28;20074;-73
2022/11/28 11:36:48;;;;;;;9.75;8.00;;;8.60;99.90;;;;;;5113938;28;20101;-73
2022/11/28 11:39:20;;;;;;;11.43;8.68;;;8.70;99.90;;;;;;5115156;28;20039;-73
2022/11/28 11:42:10;;;;;;;10.85;8.60;;;8.70;99.90;;;;;;5114097;28;20492;-73
2022/11/28 11:44:36;;;;;;;13.45;9.48;;;8.80;99.90;;;;;;5113333;28;20054;-72
2022/11/28 11:47:09;;;;;;;9.27;7.88;;;8.70;99.90;;;;;;5113897;28;20035;-72
2022/11/28 11:49:47;;;;;;;11.57;8.65;;;8.70;99.90;;;;;;5096534;28;20055;-73
2022/11/28 11:52:17;;;;;;;13.40;9.13;;;8.70;99.90;;;;;;5113484;28;20141;-72
2022/11/28 11:54:46;;;;;;;10.93;8.88;;;8.70;99.90;;;;;;5113216;28;20044;-75
2022/11/28 11:57:21;;;;;;;12.18;9.48;;;8.70;99.90;;;;;;5113690;28;20054;-73
2022/11/28 11:59:59;;;;;;;11.00;7.97;;;8.70;99.90;;;;;;5113454;28;20422;-75
2022/11/28 12:02:45;;;;;;;10.38;8.30;;;8.80;99.90;;;;;;5113139;28;20069;-75
2022/11/28 12:05:26;;;;;;;12.65;8.65;;;8.80;99.90;;;;;;5112477;28;20046;-72
2022/11/28 12:08:16;;;;;;;10.48;8.10;;;8.80;99.90;;;;;;5106453;28;20036;-73
2022/11/28 12:10:48;;;;;;;11.73;8.75;;;9.00;99.90;;;;;;5088200;28;20047;-72
2022/11/28 12:13:22;;;;;;;14.25;9.40;;;9.00;99.90;;;;;;5075446;28;20075;-73
2022/11/28 12:16:12;;;;;;;11.90;8.38;;;9.20;99.90;;;;;;5093947;28;20115;-73
2022/11/28 12:19:09;;;;;;;13.23;8.55;;;9.20;99.90;;;;;;5091728;28;20383;-72
2022/11/28 12:21:53;;;;;;;11.88;8.60;;;9.30;99.90;;;;;;5092847;28;20494;-73
2022/11/28 12:24:23;;;;;;;;;;;9.30;99.90;;;;;;5075949;28;20046;-73
2022/11/28 12:27:12;;;;;;;10.57;8.20;;;9.30;99.90;;;;;;5092583;28;19930;-72
2022/11/28 12:30:05;;;;;;;11.52;8.52;;;9.50;99.90;;;;;;5092385;28;20050;-72
2022/11/28 12:32:46;;;;;;;13.77;9.47;;;9.30;99.90;;;;;;5092288;28;20093;-72
2022/11/28 12:35:38;;;;;;;11.90;9.02;;;9.50;99.90;;;;;;5075395;28;20052;-72
2022/11/28 12:38:23;;;;;;;10.63;8.13;;;9.50;99.90;;;;;;5092384;28;20051;-73
2022/11/28 12:41:15;;;;;;;11.27;9.40;;;9.60;99.90;;;;;;5075310;28;20386;-73
2022/11/28 12:44:16;;;;;;;12.43;9.50;;;9.60;99.90;;;;;;5091565;28;20048;-72
2022/11/28 12:47:03;;;;;;;12.60;8.73;;;9.50;99.90;;;;;;5014291;28;20128;-73
2022/11/28 12:49:56;;;;;;;13.60;10.15;;;9.60;99.90;;;;;;5068036;28;20048;-73
2022/11/28 12:52:54;;;;;;;13.75;10.82;;;9.60;99.90;;;;;;5072003;28;20563;-73
2022/11/28 12:55:26;;;;;;;13.85;10.23;;;9.50;99.90;;;;;;5111940;22;20566;-69
2022/11/28 12:58:20;;;;;;;12.35;9.15;;;9.60;99.90;;;;;;5094456;28;20044;-69
2022/11/28 13:01:07;;;;;;;10.38;8.77;;;9.50;99.90;;;;;;5094092;28;20036;-70
2022/11/28 13:03:54;;;;;;;11.57;8.95;;;9.50;99.90;;;;;;5092015;28;20039;-69
2022/11/28 13:06:41;;;;;;;12.18;9.10;;;9.60;99.90;;;;;;5090801;28;20468;-70
2022/11/28 13:09:25;;;;;;;11.15;9.00;;;9.50;99.90;;;;;;5073195;28;20040;-70